sensor_id;sensor_type;location;lat;lon;timestamp;P1;durP1;ratioP1;P2;durP2;ratioP2
75793;SDS011;64418;47.536;19.074;2023-05-07T00:02:09;6.62;;;4.28;;
75793;SDS011;64418;47.536;19.074;2023-05-07T00:04:35;7.35;;;4.35;;
75793;SDS011;64418;47.536;19.074;2023-05-07T00:07:02;5.97;;;4.80;;
75793;SDS011;64418;47.536;19.074;2023-05-07T00:09:28;7.40;;;4.47;;
75793;SDS011;64418;47.536;19.074;2023-05-07T00:11:54;7.07;;;4.70;;
75793;SDS011;64418;47.536;19.074;2023-05-07T00:14:20;6.93;;;5.10;;
75793;SDS011;64418;47.536;19.074;2023-05-07T00:16:45;6.27;;;4.77;;
75793;SDS011;64418;47.536;19.074;2023-05-07T00:19:11;7.80;;;5.20;;
75793;SDS011;64418;47.536;19.074;2023-05-07T00:21:37;6.83;;;5.20;;
75793;SDS011;64418;47.536;19.074;2023-05-07T00:24:04;7.82;;;5.37;;
75793;SDS011;64418;47.536;19.074;2023-05-07T00:26:30;7.68;;;5.65;;
75793;SDS011;64418;47.536;19.074;2023-05-07T00:28:56;8.00;;;5.27;;
75793;SDS011;64418;47.536;19.074;2023-05-07T00:31:22;8.55;;;5.45;;
75793;SDS011;64418;47.536;19.074;2023-05-07T00:33:47;8.37;;;5.73;;
75793;SDS011;64418;47.536;19.074;2023-05-07T00:36:13;7.72;;;5.80;;
75793;SDS011;64418;47.536;19.074;2023-05-07T00:38:39;7.23;;;5.60;;
75793;SDS011;64418;47.536;19.074;2023-05-07T00:41:06;10.60;;;5.73;;
75793;SDS011;64418;47.536;19.074;2023-05-07T00:43:31;7.65;;;6.07;;
75793;SDS011;64418;47.536;19.074;2023-05-07T00:45:57;7.97;;;6.60;;
75793;SDS011;64418;47.536;19.074;2023-05-07T00:48:26;7.07;;;6.03;;
75793;SDS011;64418;47.536;19.074;2023-05-07T00:50:52;8.65;;;5.65;;
75793;SDS011;64418;47.536;19.074;2023-05-07T00:53:19;7.95;;;6.00;;
75793;SDS011;64418;47.536;19.074;2023-05-07T00:55:45;10.00;;;6.73;;
75793;SDS011;64418;47.536;19.074;2023-05-07T00:58:13;9.63;;;6.75;;
75793;SDS011;64418;47.536;19.074;2023-05-07T01:00:39;9.93;;;6.57;;
75793;SDS011;64418;47.536;19.074;2023-05-07T01:03:06;9.95;;;6.90;;
75793;SDS011;64418;47.536;19.074;2023-05-07T01:05:31;11.63;;;6.73;;
75793;SDS011;64418;47.536;19.074;2023-05-07T01:07:58;10.15;;;6.78;;
75793;SDS011;64418;47.536;19.074;2023-05-07T01:10:24;10.68;;;7.20;;
75793;SDS011;64418;47.536;19.074;2023-05-07T01:12:50;9.88;;;7.37;;
75793;SDS011;64418;47.536;19.074;2023-05-07T01:15:18;12.27;;;8.20;;
75793;SDS011;64418;47.536;19.074;2023-05-07T01:17:45;9.77;;;7.60;;
75793;SDS011;64418;47.536;19.074;2023-05-07T01:20:11;10.43;;;7.22;;
75793;SDS011;64418;47.536;19.074;2023-05-07T01:22:38;9.43;;;7.55;;
75793;SDS011;64418;47.536;19.074;2023-05-07T01:25:08;9.32;;;7.35;;
75793;SDS011;64418;47.536;19.074;2023-05-07T01:27:36;10.68;;;7.75;;
75793;SDS011;64418;47.536;19.074;2023-05-07T01:30:02;12.27;;;7.77;;
75793;SDS011;64418;47.536;19.074;2023-05-07T01:32:29;11.30;;;8.27;;
75793;SDS011;64418;47.536;19.074;2023-05-07T01:34:58;10.35;;;7.95;;
75793;SDS011;64418;47.536;19.074;2023-05-07T01:37:30;10.13;;;7.67;;
75793;SDS011;64418;47.536;19.074;2023-05-07T01:40:05;11.82;;;7.72;;
75793;SDS011;64418;47.536;19.074;2023-05-07T01:42:32;12.20;;;7.70;;
75793;SDS011;64418;47.536;19.074;2023-05-07T01:44:58;10.45;;;7.55;;
75793;SDS011;64418;47.536;19.074;2023-05-07T01:47:24;10.50;;;7.07;;
75793;SDS011;64418;47.536;19.074;2023-05-07T01:49:51;11.03;;;7.20;;
75793;SDS011;64418;47.536;19.074;2023-05-07T01:52:19;9.32;;;6.87;;
75793;SDS011;64418;47.536;19.074;2023-05-07T01:54:45;10.95;;;7.20;;
75793;SDS011;64418;47.536;19.074;2023-05-07T01:57:18;9.77;;;7.20;;
75793;SDS011;64418;47.536;19.074;2023-05-07T01:59:44;9.57;;;7.70;;
75793;SDS011;64418;47.536;19.074;2023-05-07T02:02:09;15.87;;;8.13;;
75793;SDS011;64418;47.536;19.074;2023-05-07T02:04:35;10.00;;;7.20;;
75793;SDS011;64418;47.536;19.074;2023-05-07T02:07:01;9.33;;;6.93;;
75793;SDS011;64418;47.536;19.074;2023-05-07T02:09:26;9.30;;;7.30;;
75793;SDS011;64418;47.536;19.074;2023-05-07T02:11:55;10.33;;;7.53;;
75793;SDS011;64418;47.536;19.074;2023-05-07T02:14:22;9.90;;;6.90;;
75793;SDS011;64418;47.536;19.074;2023-05-07T02:16:48;10.65;;;7.50;;
75793;SDS011;64418;47.536;19.074;2023-05-07T02:19:14;10.32;;;7.05;;
75793;SDS011;64418;47.536;19.074;2023-05-07T02:21:40;10.17;;;7.50;;
75793;SDS011;64418;47.536;19.074;2023-05-07T02:24:08;10.90;;;7.03;;
75793;SDS011;64418;47.536;19.074;2023-05-07T02:26:34;11.38;;;7.43;;
75793;SDS011;64418;47.536;19.074;2023-05-07T02:29:00;9.90;;;7.00;;
75793;SDS011;64418;47.536;19.074;2023-05-07T02:31:30;9.23;;;7.00;;
75793;SDS011;64418;47.536;19.074;2023-05-07T02:33:56;9.82;;;7.07;;
75793;SDS011;64418;47.536;19.074;2023-05-07T02:36:22;10.77;;;7.37;;
75793;SDS011;64418;47.536;19.074;2023-05-07T02:38:47;10.45;;;7.45;;
75793;SDS011;64418;47.536;19.074;2023-05-07T02:41:13;10.25;;;6.53;;
75793;SDS011;64418;47.536;19.074;2023-05-07T02:43:40;10.63;;;7.43;;
75793;SDS011;64418;47.536;19.074;2023-05-07T02:46:06;8.75;;;6.87;;
75793;SDS011;64418;47.536;19.074;2023-05-07T02:48:35;8.20;;;6.82;;
75793;SDS011;64418;47.536;19.074;2023-05-07T02:51:01;11.32;;;6.90;;
75793;SDS011;64418;47.536;19.074;2023-05-07T02:53:28;9.80;;;6.87;;
75793;SDS011;64418;47.536;19.074;2023-05-07T02:55:55;9.00;;;6.37;;
75793;SDS011;64418;47.536;19.074;2023-05-07T02:58:22;13.05;;;6.90;;
75793;SDS011;64418;47.536;19.074;2023-05-07T03:00:47;9.88;;;6.68;;
75793;SDS011;64418;47.536;19.074;2023-05-07T03:03:13;11.43;;;6.03;;
75793;SDS011;64418;47.536;19.074;2023-05-07T03:05:40;9.15;;;6.32;;
75793;SDS011;64418;47.536;19.074;2023-05-07T03:08:06;9.18;;;6.87;;
75793;SDS011;64418;47.536;19.074;2023-05-07T03:10:32;9.43;;;6.33;;
75793;SDS011;64418;47.536;19.074;2023-05-07T03:12:58;8.75;;;6.53;;
75793;SDS011;64418;47.536;19.074;2023-05-07T03:15:24;10.67;;;6.60;;
75793;SDS011;64418;47.536;19.074;2023-05-07T03:17:50;8.57;;;6.00;;
75793;SDS011;64418;47.536;19.074;2023-05-07T03:20:15;9.40;;;6.40;;
75793;SDS011;64418;47.536;19.074;2023-05-07T03:22:42;7.67;;;5.60;;
75793;SDS011;64418;47.536;19.074;2023-05-07T03:25:08;8.27;;;6.15;;
75793;SDS011;64418;47.536;19.074;2023-05-07T03:27:38;7.55;;;5.55;;
75793;SDS011;64418;47.536;19.074;2023-05-07T03:30:04;7.32;;;5.10;;
75793;SDS011;64418;47.536;19.074;2023-05-07T03:32:34;8.13;;;6.03;;
75793;SDS011;64418;47.536;19.074;2023-05-07T03:34:59;9.48;;;5.12;;
75793;SDS011;64418;47.536;19.074;2023-05-07T03:37:26;6.78;;;4.90;;
75793;SDS011;64418;47.536;19.074;2023-05-07T03:39:53;7.37;;;5.12;;
75793;SDS011;64418;47.536;19.074;2023-05-07T03:42:19;7.70;;;5.28;;
75793;SDS011;64418;47.536;19.074;2023-05-07T03:44:45;8.60;;;5.17;;
75793;SDS011;64418;47.536;19.074;2023-05-07T03:47:10;7.55;;;5.60;;
75793;SDS011;64418;47.536;19.074;2023-05-07T03:49:39;7.80;;;5.50;;
75793;SDS011;64418;47.536;19.074;2023-05-07T03:52:04;7.10;;;5.07;;
75793;SDS011;64418;47.536;19.074;2023-05-07T03:54:30;7.40;;;5.10;;
75793;SDS011;64418;47.536;19.074;2023-05-07T03:56:58;7.10;;;5.63;;
75793;SDS011;64418;47.536;19.074;2023-05-07T03:59:24;9.38;;;5.60;;
75793;SDS011;64418;47.536;19.074;2023-05-07T04:01:52;9.40;;;5.97;;
75793;SDS011;64418;47.536;19.074;2023-05-07T04:04:18;7.85;;;5.87;;
75793;SDS011;64418;47.536;19.074;2023-05-07T04:06:44;8.47;;;5.93;;
75793;SDS011;64418;47.536;19.074;2023-05-07T04:09:10;10.10;;;6.32;;
75793;SDS011;64418;47.536;19.074;2023-05-07T04:11:37;8.82;;;6.32;;
75793;SDS011;64418;47.536;19.074;2023-05-07T04:14:07;9.23;;;6.30;;
75793;SDS011;64418;47.536;19.074;2023-05-07T04:16:35;9.50;;;6.30;;
75793;SDS011;64418;47.536;19.074;2023-05-07T04:19:01;9.95;;;6.25;;
75793;SDS011;64418;47.536;19.074;2023-05-07T04:21:26;10.80;;;7.73;;
75793;SDS011;64418;47.536;19.074;2023-05-07T04:23:52;8.70;;;6.60;;
75793;SDS011;64418;47.536;19.074;2023-05-07T04:26:19;10.65;;;7.07;;
75793;SDS011;64418;47.536;19.074;2023-05-07T04:28:48;9.53;;;7.13;;
75793;SDS011;64418;47.536;19.074;2023-05-07T04:31:16;10.65;;;7.03;;
75793;SDS011;64418;47.536;19.074;2023-05-07T04:33:42;11.77;;;7.43;;
75793;SDS011;64418;47.536;19.074;2023-05-07T04:36:08;9.35;;;6.93;;
75793;SDS011;64418;47.536;19.074;2023-05-07T04:38:34;8.82;;;6.57;;
75793;SDS011;64418;47.536;19.074;2023-05-07T04:41:02;12.23;;;6.80;;
75793;SDS011;64418;47.536;19.074;2023-05-07T04:43:29;10.07;;;7.05;;
75793;SDS011;64418;47.536;19.074;2023-05-07T04:45:54;11.33;;;6.77;;
75793;SDS011;64418;47.536;19.074;2023-05-07T04:48:24;10.43;;;6.82;;
75793;SDS011;64418;47.536;19.074;2023-05-07T04:50:50;9.25;;;6.70;;
75793;SDS011;64418;47.536;19.074;2023-05-07T04:53:16;11.37;;;6.77;;
75793;SDS011;64418;47.536;19.074;2023-05-07T04:55:42;9.23;;;6.78;;
75793;SDS011;64418;47.536;19.074;2023-05-07T04:58:08;8.93;;;5.93;;
75793;SDS011;64418;47.536;19.074;2023-05-07T05:00:34;9.32;;;6.37;;
75793;SDS011;64418;47.536;19.074;2023-05-07T05:03:00;9.30;;;6.77;;
75793;SDS011;64418;47.536;19.074;2023-05-07T05:05:30;9.02;;;6.40;;
75793;SDS011;64418;47.536;19.074;2023-05-07T05:07:56;8.68;;;6.53;;
75793;SDS011;64418;47.536;19.074;2023-05-07T05:10:22;9.85;;;7.47;;
75793;SDS011;64418;47.536;19.074;2023-05-07T05:12:47;11.70;;;7.37;;
75793;SDS011;64418;47.536;19.074;2023-05-07T05:15:13;11.55;;;6.82;;
75793;SDS011;64418;47.536;19.074;2023-05-07T05:17:38;11.87;;;7.77;;
75793;SDS011;64418;47.536;19.074;2023-05-07T05:20:05;11.80;;;7.32;;
75793;SDS011;64418;47.536;19.074;2023-05-07T05:22:32;10.30;;;7.30;;
75793;SDS011;64418;47.536;19.074;2023-05-07T05:24:58;10.43;;;7.10;;
75793;SDS011;64418;47.536;19.074;2023-05-07T05:27:24;10.23;;;7.47;;
75793;SDS011;64418;47.536;19.074;2023-05-07T05:29:50;11.27;;;7.97;;
75793;SDS011;64418;47.536;19.074;2023-05-07T05:32:15;9.10;;;7.60;;
75793;SDS011;64418;47.536;19.074;2023-05-07T05:34:41;9.00;;;6.95;;
75793;SDS011;64418;47.536;19.074;2023-05-07T05:37:07;8.88;;;6.10;;
75793;SDS011;64418;47.536;19.074;2023-05-07T05:39:36;8.67;;;6.37;;
75793;SDS011;64418;47.536;19.074;2023-05-07T05:42:02;9.63;;;6.95;;
75793;SDS011;64418;47.536;19.074;2023-05-07T05:44:29;9.98;;;7.43;;
75793;SDS011;64418;47.536;19.074;2023-05-07T05:46:54;9.20;;;6.43;;
75793;SDS011;64418;47.536;19.074;2023-05-07T05:49:21;8.68;;;6.05;;
75793;SDS011;64418;47.536;19.074;2023-05-07T05:51:52;6.80;;;5.90;;
75793;SDS011;64418;47.536;19.074;2023-05-07T05:54:18;9.23;;;6.20;;
75793;SDS011;64418;47.536;19.074;2023-05-07T05:56:46;9.25;;;6.28;;
75793;SDS011;64418;47.536;19.074;2023-05-07T05:59:15;9.05;;;6.10;;
75793;SDS011;64418;47.536;19.074;2023-05-07T06:01:41;9.68;;;5.68;;
75793;SDS011;64418;47.536;19.074;2023-05-07T06:04:10;8.32;;;5.85;;
75793;SDS011;64418;47.536;19.074;2023-05-07T06:06:35;8.30;;;6.53;;
75793;SDS011;64418;47.536;19.074;2023-05-07T06:09:01;10.50;;;6.97;;
75793;SDS011;64418;47.536;19.074;2023-05-07T06:11:27;9.93;;;6.03;;
75793;SDS011;64418;47.536;19.074;2023-05-07T06:13:54;8.17;;;5.83;;
75793;SDS011;64418;47.536;19.074;2023-05-07T06:16:21;8.18;;;5.95;;
75793;SDS011;64418;47.536;19.074;2023-05-07T06:18:47;7.82;;;6.05;;
75793;SDS011;64418;47.536;19.074;2023-05-07T06:21:13;9.02;;;6.40;;
75793;SDS011;64418;47.536;19.074;2023-05-07T06:23:39;8.60;;;6.47;;
75793;SDS011;64418;47.536;19.074;2023-05-07T06:26:04;9.73;;;6.62;;
75793;SDS011;64418;47.536;19.074;2023-05-07T06:28:30;8.75;;;6.35;;
75793;SDS011;64418;47.536;19.074;2023-05-07T06:31:06;11.13;;;6.00;;
75793;SDS011;64418;47.536;19.074;2023-05-07T06:33:37;8.65;;;6.00;;
75793;SDS011;64418;47.536;19.074;2023-05-07T06:36:06;8.30;;;6.12;;
75793;SDS011;64418;47.536;19.074;2023-05-07T06:38:32;10.38;;;7.37;;
75793;SDS011;64418;47.536;19.074;2023-05-07T06:40:58;9.47;;;7.07;;
75793;SDS011;64418;47.536;19.074;2023-05-07T06:43:23;8.40;;;6.10;;
75793;SDS011;64418;47.536;19.074;2023-05-07T06:45:50;8.95;;;6.50;;
75793;SDS011;64418;47.536;19.074;2023-05-07T06:48:18;10.50;;;5.93;;
75793;SDS011;64418;47.536;19.074;2023-05-07T06:50:44;8.27;;;6.30;;
75793;SDS011;64418;47.536;19.074;2023-05-07T06:53:10;8.90;;;5.93;;
75793;SDS011;64418;47.536;19.074;2023-05-07T06:55:36;7.87;;;5.18;;
75793;SDS011;64418;47.536;19.074;2023-05-07T06:58:04;7.33;;;5.47;;
75793;SDS011;64418;47.536;19.074;2023-05-07T07:00:30;10.52;;;5.60;;
75793;SDS011;64418;47.536;19.074;2023-05-07T07:02:56;9.48;;;5.40;;
75793;SDS011;64418;47.536;19.074;2023-05-07T07:05:23;8.57;;;5.80;;
75793;SDS011;64418;47.536;19.074;2023-05-07T07:07:49;8.68;;;6.60;;
75793;SDS011;64418;47.536;19.074;2023-05-07T07:10:17;9.55;;;6.30;;
75793;SDS011;64418;47.536;19.074;2023-05-07T07:12:43;9.00;;;7.03;;
75793;SDS011;64418;47.536;19.074;2023-05-07T07:15:09;8.77;;;6.37;;
75793;SDS011;64418;47.536;19.074;2023-05-07T07:17:36;9.43;;;6.50;;
75793;SDS011;64418;47.536;19.074;2023-05-07T07:20:02;7.47;;;5.40;;
75793;SDS011;64418;47.536;19.074;2023-05-07T07:22:30;10.77;;;6.15;;
75793;SDS011;64418;47.536;19.074;2023-05-07T07:24:56;8.60;;;5.78;;
75793;SDS011;64418;47.536;19.074;2023-05-07T07:27:22;6.97;;;5.33;;
75793;SDS011;64418;47.536;19.074;2023-05-07T07:29:48;9.00;;;5.55;;
75793;SDS011;64418;47.536;19.074;2023-05-07T07:32:14;8.38;;;5.55;;
75793;SDS011;64418;47.536;19.074;2023-05-07T07:34:40;9.50;;;6.53;;
75793;SDS011;64418;47.536;19.074;2023-05-07T07:37:07;8.18;;;6.00;;
75793;SDS011;64418;47.536;19.074;2023-05-07T07:39:34;7.62;;;5.87;;
75793;SDS011;64418;47.536;19.074;2023-05-07T07:42:00;8.27;;;5.50;;
75793;SDS011;64418;47.536;19.074;2023-05-07T07:44:27;7.70;;;4.57;;
75793;SDS011;64418;47.536;19.074;2023-05-07T07:46:53;5.87;;;4.90;;
75793;SDS011;64418;47.536;19.074;2023-05-07T07:49:19;8.57;;;5.22;;
75793;SDS011;64418;47.536;19.074;2023-05-07T07:51:45;6.65;;;4.82;;
75793;SDS011;64418;47.536;19.074;2023-05-07T07:54:11;6.33;;;4.57;;
75793;SDS011;64418;47.536;19.074;2023-05-07T07:56:38;7.00;;;4.73;;
75793;SDS011;64418;47.536;19.074;2023-05-07T07:59:04;8.63;;;4.82;;
75793;SDS011;64418;47.536;19.074;2023-05-07T08:01:31;8.77;;;4.22;;
75793;SDS011;64418;47.536;19.074;2023-05-07T08:03:57;8.07;;;4.07;;
75793;SDS011;64418;47.536;19.074;2023-05-07T08:06:24;5.55;;;4.40;;
75793;SDS011;64418;47.536;19.074;2023-05-07T08:08:50;5.53;;;4.20;;
75793;SDS011;64418;47.536;19.074;2023-05-07T08:11:16;4.65;;;3.80;;
75793;SDS011;64418;47.536;19.074;2023-05-07T08:13:43;4.40;;;3.47;;
75793;SDS011;64418;47.536;19.074;2023-05-07T08:16:09;4.70;;;3.12;;
75793;SDS011;64418;47.536;19.074;2023-05-07T08:18:35;5.30;;;2.90;;
75793;SDS011;64418;47.536;19.074;2023-05-07T08:21:00;3.15;;;2.30;;
75793;SDS011;64418;47.536;19.074;2023-05-07T08:23:26;3.12;;;2.37;;
75793;SDS011;64418;47.536;19.074;2023-05-07T08:25:52;3.37;;;1.90;;
75793;SDS011;64418;47.536;19.074;2023-05-07T08:28:19;3.70;;;1.90;;
75793;SDS011;64418;47.536;19.074;2023-05-07T08:30:46;3.60;;;2.30;;
75793;SDS011;64418;47.536;19.074;2023-05-07T08:33:12;3.75;;;2.30;;
75793;SDS011;64418;47.536;19.074;2023-05-07T08:35:41;2.73;;;2.10;;
75793;SDS011;64418;47.536;19.074;2023-05-07T08:38:07;4.12;;;2.17;;
75793;SDS011;64418;47.536;19.074;2023-05-07T08:40:34;4.25;;;1.90;;
75793;SDS011;64418;47.536;19.074;2023-05-07T08:43:02;2.45;;;1.48;;
75793;SDS011;64418;47.536;19.074;2023-05-07T08:45:30;4.05;;;1.87;;
75793;SDS011;64418;47.536;19.074;2023-05-07T08:48:01;2.13;;;1.50;;
75793;SDS011;64418;47.536;19.074;2023-05-07T08:50:28;3.03;;;1.70;;
75793;SDS011;64418;47.536;19.074;2023-05-07T08:52:54;2.12;;;1.70;;
75793;SDS011;64418;47.536;19.074;2023-05-07T08:55:21;2.50;;;1.42;;
75793;SDS011;64418;47.536;19.074;2023-05-07T08:57:47;2.20;;;1.48;;
75793;SDS011;64418;47.536;19.074;2023-05-07T09:00:13;1.83;;;1.30;;
75793;SDS011;64418;47.536;19.074;2023-05-07T09:02:39;1.55;;;1.23;;
75793;SDS011;64418;47.536;19.074;2023-05-07T09:05:07;2.58;;;1.00;;
75793;SDS011;64418;47.536;19.074;2023-05-07T09:07:33;1.90;;;1.37;;
75793;SDS011;64418;47.536;19.074;2023-05-07T09:10:02;1.70;;;1.07;;
75793;SDS011;64418;47.536;19.074;2023-05-07T09:12:31;1.62;;;1.20;;
75793;SDS011;64418;47.536;19.074;2023-05-07T09:14:58;2.00;;;1.30;;
75793;SDS011;64418;47.536;19.074;2023-05-07T09:17:24;5.20;;;1.70;;
75793;SDS011;64418;47.536;19.074;2023-05-07T09:19:50;2.63;;;1.63;;
75793;SDS011;64418;47.536;19.074;2023-05-07T09:22:17;3.42;;;1.62;;
75793;SDS011;64418;47.536;19.074;2023-05-07T09:24:46;2.60;;;1.60;;
75793;SDS011;64418;47.536;19.074;2023-05-07T09:27:13;3.03;;;2.15;;
75793;SDS011;64418;47.536;19.074;2023-05-07T09:29:38;2.03;;;1.70;;
75793;SDS011;64418;47.536;19.074;2023-05-07T09:32:05;2.17;;;1.80;;
75793;SDS011;64418;47.536;19.074;2023-05-07T09:34:31;2.87;;;2.20;;
75793;SDS011;64418;47.536;19.074;2023-05-07T09:36:58;2.83;;;1.95;;
75793;SDS011;64418;47.536;19.074;2023-05-07T09:39:27;2.20;;;1.85;;
75793;SDS011;64418;47.536;19.074;2023-05-07T09:42:05;2.93;;;2.00;;
75793;SDS011;64418;47.536;19.074;2023-05-07T09:44:31;2.03;;;1.60;;
75793;SDS011;64418;47.536;19.074;2023-05-07T09:46:57;3.08;;;2.17;;
75793;SDS011;64418;47.536;19.074;2023-05-07T09:49:25;4.12;;;2.20;;
75793;SDS011;64418;47.536;19.074;2023-05-07T09:51:55;2.97;;;2.30;;
75793;SDS011;64418;47.536;19.074;2023-05-07T09:54:21;4.37;;;2.30;;
75793;SDS011;64418;47.536;19.074;2023-05-07T09:56:49;3.10;;;2.35;;
75793;SDS011;64418;47.536;19.074;2023-05-07T09:59:15;2.20;;;2.00;;
75793;SDS011;64418;47.536;19.074;2023-05-07T10:01:42;3.80;;;2.25;;
75793;SDS011;64418;47.536;19.074;2023-05-07T10:04:09;2.60;;;2.00;;
75793;SDS011;64418;47.536;19.074;2023-05-07T10:06:36;3.90;;;2.20;;
75793;SDS011;64418;47.536;19.074;2023-05-07T10:09:03;4.07;;;2.20;;
75793;SDS011;64418;47.536;19.074;2023-05-07T10:11:29;3.35;;;2.00;;
75793;SDS011;64418;47.536;19.074;2023-05-07T10:13:58;3.53;;;2.30;;
75793;SDS011;64418;47.536;19.074;2023-05-07T10:16:26;5.35;;;2.37;;
75793;SDS011;64418;47.536;19.074;2023-05-07T10:18:53;2.87;;;1.90;;
75793;SDS011;64418;47.536;19.074;2023-05-07T10:21:20;2.50;;;2.25;;
75793;SDS011;64418;47.536;19.074;2023-05-07T10:23:50;2.95;;;2.50;;
75793;SDS011;64418;47.536;19.074;2023-05-07T10:26:22;2.78;;;2.30;;
75793;SDS011;64418;47.536;19.074;2023-05-07T10:28:50;3.08;;;2.60;;
75793;SDS011;64418;47.536;19.074;2023-05-07T10:31:35;4.67;;;2.77;;
75793;SDS011;64418;47.536;19.074;2023-05-07T10:34:19;6.17;;;2.67;;
75793;SDS011;64418;47.536;19.074;2023-05-07T10:36:49;3.40;;;2.25;;
75793;SDS011;64418;47.536;19.074;2023-05-07T10:39:19;3.87;;;2.22;;
75793;SDS011;64418;47.536;19.074;2023-05-07T10:41:46;4.62;;;2.00;;
75793;SDS011;64418;47.536;19.074;2023-05-07T10:44:11;2.47;;;1.90;;
75793;SDS011;64418;47.536;19.074;2023-05-07T10:47:05;2.30;;;2.10;;
75793;SDS011;64418;47.536;19.074;2023-05-07T10:49:35;2.37;;;2.08;;
75793;SDS011;64418;47.536;19.074;2023-05-07T10:52:11;3.92;;;2.25;;
75793;SDS011;64418;47.536;19.074;2023-05-07T10:54:38;3.78;;;2.20;;
75793;SDS011;64418;47.536;19.074;2023-05-07T10:59:59;3.42;;;2.80;;
75793;SDS011;64418;47.536;19.074;2023-05-07T11:02:37;3.70;;;2.70;;
75793;SDS011;64418;47.536;19.074;2023-05-07T11:05:32;4.65;;;2.87;;
75793;SDS011;64418;47.536;19.074;2023-05-07T11:07:59;3.67;;;2.70;;
75793;SDS011;64418;47.536;19.074;2023-05-07T11:13:18;3.85;;;2.90;;
75793;SDS011;64418;47.536;19.074;2023-05-07T11:16:04;3.37;;;2.47;;
75793;SDS011;64418;47.536;19.074;2023-05-07T11:21:33;5.40;;;2.70;;
75793;SDS011;64418;47.536;19.074;2023-05-07T11:24:01;4.75;;;2.53;;
75793;SDS011;64418;47.536;19.074;2023-05-07T11:26:28;4.35;;;2.60;;
75793;SDS011;64418;47.536;19.074;2023-05-07T11:29:10;3.30;;;2.20;;
75793;SDS011;64418;47.536;19.074;2023-05-07T11:31:40;3.00;;;2.47;;
75793;SDS011;64418;47.536;19.074;2023-05-07T11:34:07;3.90;;;2.62;;
75793;SDS011;64418;47.536;19.074;2023-05-07T11:36:34;3.83;;;2.42;;
75793;SDS011;64418;47.536;19.074;2023-05-07T11:39:06;2.87;;;2.40;;
75793;SDS011;64418;47.536;19.074;2023-05-07T11:41:48;2.73;;;2.47;;
75793;SDS011;64418;47.536;19.074;2023-05-07T11:44:14;2.92;;;2.50;;
75793;SDS011;64418;47.536;19.074;2023-05-07T11:46:42;5.07;;;2.30;;
75793;SDS011;64418;47.536;19.074;2023-05-07T11:49:10;3.08;;;2.20;;
75793;SDS011;64418;47.536;19.074;2023-05-07T11:51:36;3.28;;;2.45;;
75793;SDS011;64418;47.536;19.074;2023-05-07T11:54:03;3.92;;;2.40;;
75793;SDS011;64418;47.536;19.074;2023-05-07T11:56:31;3.75;;;2.40;;
75793;SDS011;64418;47.536;19.074;2023-05-07T11:59:00;3.30;;;2.20;;
75793;SDS011;64418;47.536;19.074;2023-05-07T12:01:26;2.72;;;1.98;;
75793;SDS011;64418;47.536;19.074;2023-05-07T12:03:55;2.20;;;2.00;;
75793;SDS011;64418;47.536;19.074;2023-05-07T12:06:22;3.55;;;2.35;;
75793;SDS011;64418;47.536;19.074;2023-05-07T12:08:48;2.80;;;2.27;;
75793;SDS011;64418;47.536;19.074;2023-05-07T12:11:14;3.83;;;2.30;;
75793;SDS011;64418;47.536;19.074;2023-05-07T12:13:41;3.65;;;2.12;;
75793;SDS011;64418;47.536;19.074;2023-05-07T12:16:10;2.95;;;2.30;;
75793;SDS011;64418;47.536;19.074;2023-05-07T12:18:37;2.47;;;2.03;;
75793;SDS011;64418;47.536;19.074;2023-05-07T12:21:03;4.15;;;2.10;;
75793;SDS011;64418;47.536;19.074;2023-05-07T12:23:31;3.37;;;2.12;;
75793;SDS011;64418;47.536;19.074;2023-05-07T12:25:58;3.20;;;2.53;;
75793;SDS011;64418;47.536;19.074;2023-05-07T12:28:25;2.80;;;2.45;;
75793;SDS011;64418;47.536;19.074;2023-05-07T12:30:51;2.63;;;2.10;;
75793;SDS011;64418;47.536;19.074;2023-05-07T12:33:18;4.37;;;2.17;;
75793;SDS011;64418;47.536;19.074;2023-05-07T12:35:43;3.00;;;2.10;;
75793;SDS011;64418;47.536;19.074;2023-05-07T12:38:09;3.15;;;1.90;;
75793;SDS011;64418;47.536;19.074;2023-05-07T12:40:41;2.23;;;1.80;;
75793;SDS011;64418;47.536;19.074;2023-05-07T12:43:14;4.80;;;2.10;;
75793;SDS011;64418;47.536;19.074;2023-05-07T12:45:41;3.03;;;2.33;;
75793;SDS011;64418;47.536;19.074;2023-05-07T12:48:07;3.72;;;2.47;;
75793;SDS011;64418;47.536;19.074;2023-05-07T12:50:35;2.72;;;2.30;;
75793;SDS011;64418;47.536;19.074;2023-05-07T12:53:02;3.40;;;2.70;;
75793;SDS011;64418;47.536;19.074;2023-05-07T12:55:29;2.70;;;2.25;;
75793;SDS011;64418;47.536;19.074;2023-05-07T12:57:56;3.47;;;2.33;;
75793;SDS011;64418;47.536;19.074;2023-05-07T13:00:36;2.50;;;2.20;;
75793;SDS011;64418;47.536;19.074;2023-05-07T13:03:03;5.25;;;2.55;;
75793;SDS011;64418;47.536;19.074;2023-05-07T13:05:29;2.70;;;2.10;;
75793;SDS011;64418;47.536;19.074;2023-05-07T13:07:55;2.80;;;2.33;;
75793;SDS011;64418;47.536;19.074;2023-05-07T13:10:25;4.60;;;2.28;;
75793;SDS011;64418;47.536;19.074;2023-05-07T13:12:50;5.45;;;2.33;;
75793;SDS011;64418;47.536;19.074;2023-05-07T13:15:18;2.42;;;2.10;;
75793;SDS011;64418;47.536;19.074;2023-05-07T13:17:46;3.12;;;2.28;;
75793;SDS011;64418;47.536;19.074;2023-05-07T13:20:12;2.40;;;1.93;;
75793;SDS011;64418;47.536;19.074;2023-05-07T13:22:38;3.12;;;2.12;;
75793;SDS011;64418;47.536;19.074;2023-05-07T13:25:13;3.33;;;2.08;;
75793;SDS011;64418;47.536;19.074;2023-05-07T13:27:42;4.90;;;2.33;;
75793;SDS011;64418;47.536;19.074;2023-05-07T13:30:08;3.03;;;2.10;;
75793;SDS011;64418;47.536;19.074;2023-05-07T13:32:36;3.33;;;2.17;;
75793;SDS011;64418;47.536;19.074;2023-05-07T13:35:07;5.07;;;2.22;;
75793;SDS011;64418;47.536;19.074;2023-05-07T13:37:34;2.97;;;2.50;;
75793;SDS011;64418;47.536;19.074;2023-05-07T13:39:59;3.23;;;2.40;;
75793;SDS011;64418;47.536;19.074;2023-05-07T13:42:28;3.15;;;2.70;;
75793;SDS011;64418;47.536;19.074;2023-05-07T13:44:56;3.45;;;2.10;;
75793;SDS011;64418;47.536;19.074;2023-05-07T13:47:22;3.43;;;2.33;;
75793;SDS011;64418;47.536;19.074;2023-05-07T13:49:49;3.40;;;2.25;;
75793;SDS011;64418;47.536;19.074;2023-05-07T13:52:15;5.10;;;2.80;;
75793;SDS011;64418;47.536;19.074;2023-05-07T13:54:44;2.62;;;2.20;;
75793;SDS011;64418;47.536;19.074;2023-05-07T13:57:10;3.60;;;2.63;;
75793;SDS011;64418;47.536;19.074;2023-05-07T13:59:36;4.50;;;2.70;;
75793;SDS011;64418;47.536;19.074;2023-05-07T14:02:08;3.85;;;2.70;;
75793;SDS011;64418;47.536;19.074;2023-05-07T14:04:33;4.10;;;2.50;;
75793;SDS011;64418;47.536;19.074;2023-05-07T14:07:01;3.13;;;2.20;;
75793;SDS011;64418;47.536;19.074;2023-05-07T14:09:30;2.80;;;1.90;;
75793;SDS011;64418;47.536;19.074;2023-05-07T14:11:55;3.22;;;2.15;;
75793;SDS011;64418;47.536;19.074;2023-05-07T14:14:23;2.80;;;2.12;;
75793;SDS011;64418;47.536;19.074;2023-05-07T14:16:52;5.90;;;2.13;;
75793;SDS011;64418;47.536;19.074;2023-05-07T14:19:18;3.47;;;2.30;;
75793;SDS011;64418;47.536;19.074;2023-05-07T14:21:47;3.62;;;2.60;;
75793;SDS011;64418;47.536;19.074;2023-05-07T14:24:14;4.62;;;2.10;;
75793;SDS011;64418;47.536;19.074;2023-05-07T14:26:40;3.10;;;2.07;;
75793;SDS011;64418;47.536;19.074;2023-05-07T14:29:05;3.17;;;2.12;;
75793;SDS011;64418;47.536;19.074;2023-05-07T14:31:34;4.18;;;2.03;;
75793;SDS011;64418;47.536;19.074;2023-05-07T14:34:00;3.28;;;2.03;;
75793;SDS011;64418;47.536;19.074;2023-05-07T14:36:26;3.23;;;2.17;;
75793;SDS011;64418;47.536;19.074;2023-05-07T14:38:51;6.47;;;2.10;;
75793;SDS011;64418;47.536;19.074;2023-05-07T14:41:21;2.40;;;1.95;;
75793;SDS011;64418;47.536;19.074;2023-05-07T14:43:50;3.05;;;2.10;;